createdAt,value
2023-05-02T06:34:38.229Z,100161.3
2023-05-02T06:37:05.098Z,100162.24
2023-05-02T06:39:22.165Z,100164.52
2023-05-02T06:41:38.380Z,100165.91
2023-05-02T06:44:25.020Z,100166.3
2023-05-02T06:53:25.078Z,100162.55
2023-05-02T06:55:37.400Z,100160.7
2023-05-02T06:57:44.940Z,100159.13
2023-05-02T06:59:53.819Z,100159.86
2023-05-02T07:02:03.657Z,100156.25
2023-05-02T07:04:12.138Z,100158.43
2023-05-02T07:06:19.606Z,100163.43
2023-05-02T07:08:27.160Z,100154.64
2023-05-02T07:10:34.990Z,100159.67
2023-05-02T07:12:42.712Z,100154.75
2023-05-02T07:14:51.197Z,100164.34
2023-05-02T07:16:58.480Z,100155.45
2023-05-02T07:19:06.317Z,100156.16
2023-05-02T07:21:13.637Z,100160.88
2023-05-02T07:23:21.680Z,100157.8
2023-05-02T07:25:30.320Z,100163.69
2023-05-02T07:28:02.412Z,100163.19
2023-05-02T07:30:36.414Z,100169.41
2023-05-02T07:39:58.764Z,100161.98
2023-05-02T07:43:48.195Z,100164.65
2023-05-02T07:49:57.070Z,100166.44
2023-05-02T07:58:35.134Z,100160.23
2023-05-02T08:01:26.138Z,100157.86
2023-05-02T08:03:38.105Z,100159.89
2023-05-02T08:05:47.130Z,100158.28
2023-05-02T08:08:04.504Z,100162.15
2023-05-02T08:10:13.131Z,100169.08
2023-05-02T08:15:14.913Z,100172.8
2023-05-02T08:17:28.384Z,100169.45
2023-05-02T08:19:43.426Z,100171.41
2023-05-02T08:21:51.193Z,100172.52
2023-05-02T08:23:58.794Z,100173.96
2023-05-02T08:26:07.375Z,100180.25
2023-05-02T08:28:15.334Z,100171.07
2023-05-02T08:30:22.363Z,100174.75
2023-05-02T08:32:29.591Z,100176.95
2023-05-02T08:34:40.092Z,100176.91
2023-05-02T08:36:57.592Z,100174.55
2023-05-02T08:39:13.765Z,100171.66
2023-05-02T08:41:20.429Z,100179.56
2023-05-02T08:43:29.966Z,100186.77
2023-05-02T08:45:39.748Z,100187
2023-05-02T08:47:48.390Z,100183.81
2023-05-02T08:50:02.784Z,100186.52
2023-05-02T08:52:14.297Z,100189.45
2023-05-02T08:54:24.514Z,100195.83
2023-05-02T08:56:31.682Z,100191.89
2023-05-02T08:58:42.940Z,100191.08
2023-05-02T09:00:49.931Z,100189.5
2023-05-02T09:02:58.819Z,100187.69
2023-05-02T09:05:08.656Z,100190.22
2023-05-02T09:07:20.605Z,100182.66
2023-05-02T09:09:30.620Z,100183.44
2023-05-02T09:11:40.076Z,100181.61
2023-05-02T09:13:51.561Z,100184.64
2023-05-02T09:15:58.229Z,100193.13
2023-05-02T09:18:10.571Z,100194.55
2023-05-02T09:20:17.364Z,100195.36
2023-05-02T09:22:25.223Z,100196.58
2023-05-02T09:24:39.021Z,100197.16
2023-05-02T09:26:51.079Z,100205.02
2023-05-02T09:28:59.817Z,100203.19
2023-05-02T09:31:12.281Z,100201.57
2023-05-02T09:33:35.359Z,100206.86
2023-05-02T09:35:41.965Z,100195.33
2023-05-02T09:37:48.418Z,100198.03
2023-05-02T09:39:55.753Z,100206.88
2023-05-02T09:42:03.763Z,100193.19
2023-05-02T09:44:10.477Z,100205.66
2023-05-02T09:46:21.090Z,100206.05
2023-05-02T09:48:31.886Z,100206.81
2023-05-02T09:50:44.337Z,100210.08
2023-05-02T09:52:54.052Z,100210.05
2023-05-02T09:55:02.758Z,100212.19
2023-05-02T09:57:09.465Z,100208.39
2023-05-02T09:59:17.392Z,100211.03
2023-05-02T10:01:31.037Z,100211.07
2023-05-02T10:03:42.665Z,100216.16
2023-05-02T10:05:54.065Z,100223.59
2023-05-02T10:08:07.213Z,100213.97
2023-05-02T10:10:16.452Z,100224.7
2023-05-02T10:12:27.042Z,100227.32
2023-05-02T10:14:40.899Z,100222.01
2023-05-02T10:16:56.662Z,100232.77
2023-05-02T10:19:04.257Z,100231.09
2023-05-02T10:21:16.997Z,100232.67
2023-05-02T10:23:25.414Z,100231.42
2023-05-02T10:25:36.417Z,100240.64
2023-05-02T10:27:46.456Z,100249.82
2023-05-02T10:30:00.715Z,100249.13
2023-05-02T10:32:12.430Z,100247.43
2023-05-02T10:34:22.237Z,100256.12
2023-05-02T10:36:34.477Z,100259.47
2023-05-02T10:38:48.328Z,100255.63
2023-05-02T10:40:58.582Z,100244.86
2023-05-02T10:43:07.158Z,100257.64
2023-05-02T10:45:17.781Z,100257.21
2023-05-02T10:47:28.006Z,100257.5
2023-05-02T10:49:43.826Z,100265.66
2023-05-02T10:51:57.397Z,100263.98
2023-05-02T10:54:05.574Z,100267.13
2023-05-02T10:56:18.753Z,100266.36
2023-05-02T10:58:25.915Z,100270.91
2023-05-02T11:00:36.551Z,100270.12
2023-05-02T11:02:46.260Z,100275.66
2023-05-02T11:05:00.108Z,100277.33
2023-05-02T11:07:12.223Z,100281.56
2023-05-02T11:09:19.984Z,100280.38
2023-05-02T11:11:36.451Z,100289.23
2023-05-02T11:13:50.398Z,100290.03
2023-05-02T11:16:12.954Z,100299.3
2023-05-02T11:18:22.654Z,100300.21
2023-05-02T11:20:33.331Z,100306.42
2023-05-02T11:22:43.635Z,100304.06
2023-05-02T11:24:54.548Z,100311.45
2023-05-02T11:27:16.641Z,100311.92
2023-05-02T11:29:36.359Z,100319.91
2023-05-02T11:31:57.739Z,100322.02
2023-05-02T11:34:08.575Z,100328.5
2023-05-02T11:36:17.652Z,100336.88
2023-05-02T11:38:30.811Z,100339.3
2023-05-02T11:40:41.415Z,100337.25
2023-05-02T11:42:51.859Z,100337.23
2023-05-02T11:44:59.721Z,100341.94
2023-05-02T11:47:15.170Z,100346.98
2023-05-02T11:49:31.073Z,100348.65
2023-05-02T11:51:40.822Z,100350.19
2023-05-02T11:53:51.172Z,100350.64
2023-05-02T11:56:13.564Z,100356
2023-05-02T11:58:21.833Z,100353.92
2023-05-02T12:00:40.577Z,100356.16
2023-05-02T12:03:10.727Z,100354.25
2023-05-02T12:05:19.608Z,100365.52
2023-05-02T12:07:30.180Z,100370
2023-05-02T12:09:49.431Z,100370.05
2023-05-02T12:12:11.733Z,100381.72
2023-05-02T12:14:31.934Z,100380.34
2023-05-02T12:16:43.034Z,100384.63
2023-05-02T12:18:56.735Z,100389.13
2023-05-02T12:21:09.017Z,100394.65
2023-05-02T12:23:20.063Z,100397.61
2023-05-02T12:25:32.620Z,100392.89
2023-05-02T12:27:46.299Z,100394.09
2023-05-02T12:29:54.648Z,100393.95
2023-05-02T12:32:02.466Z,100401.66
2023-05-02T12:34:13.332Z,100403.2
2023-05-02T12:36:26.540Z,100399.98
2023-05-02T12:38:37.833Z,100408.8
2023-05-02T12:40:48.862Z,100406.69
2023-05-02T12:43:00.826Z,100410.75
2023-05-02T12:45:11.365Z,100413.77
2023-05-02T12:47:19.818Z,100410.67
2023-05-02T12:49:29.808Z,100416.64
2023-05-02T12:51:39.181Z,100419.57
2023-05-02T12:53:48.158Z,100411.13
2023-05-02T12:55:55.520Z,100416.91
2023-05-02T12:58:09.653Z,100410
2023-05-02T13:00:29.811Z,100412.36
2023-05-02T13:02:40.890Z,100419.33
2023-05-02T13:05:00.017Z,100419.37
2023-05-02T13:07:08.374Z,100423.93
2023-05-02T13:09:27.476Z,100420.16
2023-05-02T13:11:46.801Z,100419.2
2023-05-02T13:13:55.251Z,100421.88
2023-05-02T13:16:03.088Z,100427.17
2023-05-02T13:18:20.270Z,100429.8
2023-05-02T13:20:35.050Z,100429.47
2023-05-02T13:22:45.247Z,100434.27
2023-05-02T13:25:00.775Z,100432.93
2023-05-02T13:27:10.890Z,100433.5
2023-05-02T13:29:29.669Z,100434.28
2023-05-02T13:31:45.520Z,100435.77
2023-05-02T13:34:02.374Z,100432.2
2023-05-02T13:36:25.266Z,100432.38
2023-05-02T13:38:42.545Z,100429.03
2023-05-02T13:40:54.492Z,100434.16
2023-05-02T13:43:05.696Z,100431.53
2023-05-02T13:45:22.454Z,100438.39
2023-05-02T13:47:39.416Z,100434.23
2023-05-02T13:49:49.720Z,100437.42
2023-05-02T13:52:01.622Z,100437.08
2023-05-02T13:54:13.140Z,100436.58
2023-05-02T13:56:22.609Z,100445.91
2023-05-02T13:58:38.240Z,100439.86
2023-05-02T14:00:53.341Z,100446.2
2023-05-02T14:03:04.038Z,100446.86
2023-05-02T14:05:18.892Z,100451.04
2023-05-02T14:07:33.241Z,100453.61
2023-05-02T14:09:41.548Z,100449.3
2023-05-02T14:11:51.549Z,100450.84
2023-05-02T14:14:09.268Z,100450.77
2023-05-02T14:16:22.036Z,100444.34
2023-05-02T14:18:43.106Z,100447.02
2023-05-02T14:20:53.442Z,100453.09
2023-05-02T14:23:07.529Z,100450.81
2023-05-02T14:25:23.486Z,100449.14
2023-05-02T14:27:37.697Z,100453.39
2023-05-02T14:29:47.442Z,100450.08
2023-05-02T14:32:01.453Z,100450.56
2023-05-02T14:34:16.095Z,100449.45
2023-05-02T14:36:26.959Z,100449.56
2023-05-02T14:38:47.821Z,100450.2
2023-05-02T14:41:06.600Z,100443.94
2023-05-02T14:43:19.875Z,100446.88
2023-05-02T14:45:37.798Z,100438.78
2023-05-02T14:47:49.169Z,100441.52
2023-05-02T14:50:01.217Z,100437.3
2023-05-02T14:52:14.403Z,100440.64
2023-05-02T14:54:26.811Z,100444.35
2023-05-02T14:56:37.447Z,100447.88
2023-05-02T14:58:47.740Z,100444.33
2023-05-02T15:01:05.574Z,100447.1
2023-05-02T15:03:21.574Z,100445.02
2023-05-02T15:05:36.916Z,100441.2
2023-05-02T15:07:49.182Z,100442.14
2023-05-02T15:10:06.507Z,100445.3
2023-05-02T15:12:45.178Z,100444.36
2023-05-02T15:15:12.259Z,100443.13
2023-05-02T15:20:25.248Z,100441.03
2023-05-02T15:32:31.736Z,100454.32
2023-05-02T15:42:22.508Z,100456.48
2023-05-02T15:51:57.373Z,100459.55
2023-05-02T15:57:42.550Z,100461.47
2023-05-02T16:00:37.715Z,100463.42
2023-05-02T16:03:27.190Z,100457.63
2023-05-02T16:05:48.938Z,100457.16
2023-05-02T16:08:20.341Z,100457.22
2023-05-02T16:10:57.934Z,100461.31
2023-05-02T16:13:13.313Z,100463.21
2023-05-02T16:15:27.814Z,100472.09
2023-05-02T16:17:41.432Z,100474.73
2023-05-02T16:20:00.113Z,100473.64
2023-05-02T16:22:15.324Z,100474.16
2023-05-02T16:24:24.042Z,100481.2
2023-05-02T16:26:33.760Z,100484.66
2023-05-02T16:28:46.096Z,100486.92
2023-05-02T16:30:55.453Z,100484.73
2023-05-02T16:33:08.752Z,100488.17
2023-05-02T16:35:22.612Z,100486.32
2023-05-02T16:37:33.535Z,100485.84
2023-05-02T16:39:47.644Z,100484.13
2023-05-02T16:41:58.059Z,100484.88
2023-05-02T16:44:07.257Z,100487.68
2023-05-02T16:46:15.835Z,100488.47
2023-05-02T16:48:27.447Z,100487.31
2023-05-02T16:50:40.233Z,100487.84
2023-05-02T16:52:55.872Z,100485.59
2023-05-02T16:55:11.169Z,100484.59
2023-05-02T16:57:26.834Z,100480.17
2023-05-02T16:59:35.468Z,100488.13
2023-05-02T17:01:49.840Z,100487.72
2023-05-02T17:04:00.137Z,100486.91
2023-05-02T17:06:14.652Z,100487.03
2023-05-02T17:08:27.428Z,100483.45
2023-05-02T17:10:55.125Z,100488.56
2023-05-02T17:13:09.235Z,100487.61
2023-05-02T17:15:18.493Z,100484.85
2023-05-02T17:17:33.738Z,100488.52
2023-05-02T17:19:47.676Z,100488.04
2023-05-02T17:21:58.625Z,100484.94
2023-05-02T17:24:08.875Z,100484.48
2023-05-02T17:26:21.116Z,100488.15
2023-05-02T17:28:32.740Z,100488.82
2023-05-02T17:30:49.698Z,100489.92
2023-05-02T17:33:12.210Z,100493.05
2023-05-02T17:35:41.583Z,100498.36
2023-05-02T17:38:11.059Z,100498.24
2023-05-02T17:40:37.414Z,100502.02
2023-05-02T17:46:19.650Z,100511.86
2023-05-02T17:49:04.905Z,100512.6
2023-05-02T17:56:08.959Z,100519.08
2023-05-02T18:01:41.240Z,100526.5
2023-05-02T18:13:57.577Z,100535.48
2023-05-02T18:19:20.151Z,100540.34
2023-05-02T18:21:33.875Z,100540.75
2023-05-02T18:24:20.969Z,100542.61
2023-05-02T18:30:07.677Z,100541.69
2023-05-02T18:32:50.360Z,100545.89
2023-05-02T18:35:03.733Z,100544.14
2023-05-02T18:37:14.586Z,100549.66
2023-05-02T18:39:33.010Z,100549.58
2023-05-02T18:41:48.184Z,100549.54
2023-05-02T18:44:09.815Z,100550.66
2023-05-02T18:46:21.423Z,100553.53
2023-05-02T18:48:44.545Z,100559.37
2023-05-02T18:50:56.313Z,100562.78
2023-05-02T18:53:13.167Z,100570.32
2023-05-02T18:55:27.037Z,100574.38
2023-05-02T18:57:37.147Z,100567.86
2023-05-02T18:59:51.526Z,100579.98
2023-05-02T19:02:01.569Z,100581.3
2023-05-02T19:04:15.916Z,100584.62
2023-05-02T19:06:28.366Z,100583.36
2023-05-02T19:08:46.506Z,100579.83
2023-05-02T19:11:04.359Z,100587.14
2023-05-02T19:13:16.463Z,100592.31
2023-05-02T19:15:28.534Z,100591.83
2023-05-02T19:17:49.567Z,100599.33
2023-05-02T19:20:05.531Z,100600.73
2023-05-02T19:22:18.319Z,100604.86
2023-05-02T19:24:47.465Z,100612.45
2023-05-02T19:27:02.686Z,100607.08
2023-05-02T19:29:28.231Z,100614.11
2023-05-02T19:31:49.368Z,100616.48
2023-05-02T19:34:07.451Z,100617.11
2023-05-02T19:36:33.783Z,100622.72
2023-05-02T19:38:54.189Z,100622.17
2023-05-02T19:41:17.335Z,100623.33
2023-05-02T19:43:35.346Z,100626.84
2023-05-02T19:45:52.063Z,100630.69
2023-05-02T19:48:07.471Z,100630.31
2023-05-02T19:50:30.365Z,100630.45
2023-05-02T19:52:43.602Z,100628.91
2023-05-02T19:54:57.550Z,100628.97
2023-05-02T19:57:16.237Z,100634.59
2023-05-02T19:59:27.398Z,100634.72
2023-05-02T20:01:53.949Z,100641.52
2023-05-02T20:06:45.103Z,100647.97
2023-05-02T20:09:02.990Z,100651.69
2023-05-02T20:11:18.502Z,100651.46
2023-05-02T20:13:28.501Z,100654.73
2023-05-02T20:15:55.654Z,100657.73
2023-05-02T20:18:10.785Z,100657.89
2023-05-02T20:20:25.983Z,100661.16
2023-05-02T20:22:52.017Z,100670.09
2023-05-02T20:25:15.939Z,100667.97
2023-05-02T20:27:33.073Z,100676.67
2023-05-02T20:30:00.300Z,100673.55
2023-05-02T20:32:15.024Z,100681.88
2023-05-02T20:34:41.796Z,100679.17
2023-05-02T20:36:55.529Z,100689.53
2023-05-02T20:39:15.279Z,100692.83
2023-05-02T20:41:29.885Z,100699.49
2023-05-02T20:43:45.518Z,100701.61
2023-05-02T20:45:59.719Z,100701.78
2023-05-02T20:48:23.205Z,100703.19
2023-05-02T20:50:43.707Z,100704.66
2023-05-02T20:52:59.801Z,100705.63
2023-05-02T20:55:10.163Z,100712.95
2023-05-02T20:57:24.810Z,100713.38
2023-05-02T20:59:41.393Z,100711.93
2023-05-02T21:02:01.453Z,100713.95
2023-05-02T21:04:18.088Z,100717.87
2023-05-02T21:06:26.988Z,100718.16
2023-05-02T21:08:48.977Z,100721.14
2023-05-02T21:11:10.976Z,100731.13
2023-05-02T21:13:27.872Z,100728.6
2023-05-02T21:15:42.856Z,100730.98
2023-05-02T21:17:57.815Z,100734.59
2023-05-02T21:20:14.636Z,100734.3
2023-05-02T21:22:33.753Z,100735.13
2023-05-02T21:24:51.316Z,100739.58
2023-05-02T21:27:16.871Z,100743.22
2023-05-02T21:29:28.160Z,100750.63
2023-05-02T21:31:41.847Z,100752.46
2023-05-02T21:34:11.659Z,100753.65
2023-05-02T21:36:31.544Z,100760.01
2023-05-02T21:38:45.713Z,100765.08
2023-05-02T21:41:04.430Z,100768.99
2023-05-02T21:43:15.413Z,100775.29
2023-05-02T21:45:28.745Z,100783.17
2023-05-02T21:47:39.257Z,100789.73
2023-05-02T21:49:57.073Z,100794.64
2023-05-02T21:52:14.276Z,100799.52
2023-05-02T21:54:25.307Z,100802.27
2023-05-02T21:56:36.324Z,100802.33
2023-05-02T21:58:51.561Z,100809.89
2023-05-02T22:01:05.296Z,100807.02
2023-05-02T22:03:32.099Z,100807.88
2023-05-02T22:05:50.337Z,100806.82
2023-05-02T22:07:59.849Z,100809.88
2023-05-02T22:10:13.895Z,100808.38
2023-05-02T22:12:39.300Z,100815.09
2023-05-02T22:14:52.347Z,100815.31
2023-05-02T22:17:26.536Z,100820.38
2023-05-02T22:19:40.837Z,100824.17
2023-05-02T22:21:59.357Z,100827.87
2023-05-02T22:24:15.948Z,100830.92
2023-05-02T22:26:30.735Z,100831.23
2023-05-02T22:28:46.303Z,100838.32
2023-05-02T22:30:56.265Z,100838.75
2023-05-02T22:33:07.713Z,100837.47
2023-05-02T22:35:25.225Z,100840.01
2023-05-02T22:37:41.509Z,100842.83
2023-05-02T22:39:55.359Z,100847.69
2023-05-02T22:42:12.079Z,100850.86
2023-05-02T22:44:50.836Z,100853.84
2023-05-02T22:47:17.004Z,100857.64
2023-05-02T22:49:28.951Z,100858.3
2023-05-02T22:51:48.906Z,100859.02
2023-05-02T22:54:05.253Z,100863.24
2023-05-02T22:56:17.634Z,100866.13
2023-05-02T22:58:30.107Z,100863.98
2023-05-02T23:00:50.372Z,100872.9
2023-05-02T23:03:05.289Z,100879.17
2023-05-02T23:05:17.993Z,100882.27
2023-05-02T23:07:35.275Z,100878.84
2023-05-02T23:09:46.679Z,100880.75
2023-05-02T23:12:03.207Z,100881.39
2023-05-02T23:14:12.430Z,100876.59
2023-05-02T23:16:23.302Z,100876.33
2023-05-02T23:18:33.395Z,100879.89
2023-05-02T23:20:49.595Z,100883.34
2023-05-02T23:23:06.620Z,100882.52
2023-05-02T23:25:25.031Z,100887.66
2023-05-02T23:27:36.468Z,100893.38
2023-05-02T23:29:49.949Z,100893.45
2023-05-02T23:32:02.736Z,100892.28
2023-05-02T23:34:28.377Z,100893.03
2023-05-02T23:36:45.349Z,100893.58
2023-05-02T23:39:03.871Z,100894.18
2023-05-02T23:41:16.087Z,100900.2
2023-05-02T23:43:36.383Z,100899.05
2023-05-02T23:45:50.644Z,100898.66
2023-05-02T23:48:14.546Z,100899.39
2023-05-02T23:50:22.267Z,100904.69
2023-05-02T23:52:40.878Z,100908.66
2023-05-02T23:54:57.074Z,100912.46
2023-05-02T23:57:33.580Z,100916.93
2023-05-02T23:59:43.629Z,100909.31
